Airfield :
LOGIN :

Register | Disclaimer

   EN    FR    IT 

 










Legend :    VFR   Marginal VFR   IFR   Intensive IFR   Very Intensive IFR
Visi :
Ceiling :
>= 8 km
>= 3000ft
5 to 8 km
1000 to 3000 ft
1500m to 5 km
500 to 1000 ft
800 to 1500m
200 to 500 ft
< 800m
< 200 ft
Symbols :   Thunderstorms  Fog  Heavy snow  Heavy precipitations  Wind > 20 kt
SIGMETs :     Misc.  Thunderstorms  Icing  Turbulence  Mountain Waves  Volcanic Ashes






- Airport Elevation : 17 ft
- IATA code : GRQ


EHGG - Groningen Eelde

CURRENT METAR :
  • 171925Z AUTO 06005KT 9999 NSC 13/11 Q1016 NOSIG

EXPIRED METARs :
  • 171855Z AUTO 05007KT 9999 NSC 15/12 Q1015 NOSIG
  • 171825Z AUTO 05006KT 010V070 9999 NSC 15/12 Q1015 NOSIG
  • 171755Z AUTO 06006KT 9999 NSC 16/13 Q1015 NOSIG
  • 171725Z AUTO 04005KT 9999 NSC 17/13 Q1015 NOSIG
  • 171655Z AUTO 04006KT 9999 NSC 17/13 Q1015 NOSIG

TAF TAF EHGG
Valid from the 17 at 18:00 until the 19 at 00:00 UTC


171705Z 1718/1824 VRB03KT 9999 SCT030
PROB30 1803/1807 4000 BR



MET'MAP, your aeronautical weather chart ! - Copyright ORBIFLY December 2007 - Disclaimer

ORBIFLY MET'MAP TEAM :

Programming & Development : Alexandra Zaïnal
Concept & original design : Baudouin d'Aumeries
Assistance for programming : Marc-Olivier Méhu
Technical & hardware support : Manuel Goepfert

Contact : metmap@orbifly.com




SOURCES & CREDITS :

   NOAA